sensor_id;sensor_type;location;lat;lon;timestamp;temperature;humidity
3053;DHT22;1536;51.098;6.414;2022-09-13T00:00:30;19.50;99.90
3053;DHT22;1536;51.098;6.414;2022-09-13T00:02:57;19.40;99.90
3053;DHT22;1536;51.098;6.414;2022-09-13T00:05:24;19.40;99.90
3053;DHT22;1536;51.098;6.414;2022-09-13T00:07:50;19.40;99.90
3053;DHT22;1536;51.098;6.414;2022-09-13T00:10:17;19.40;99.90
3053;DHT22;1536;51.098;6.414;2022-09-13T00:12:44;19.40;99.90
3053;DHT22;1536;51.098;6.414;2022-09-13T00:15:11;19.40;99.90
3053;DHT22;1536;51.098;6.414;2022-09-13T00:17:39;19.40;99.90
3053;DHT22;1536;51.098;6.414;2022-09-13T00:20:06;19.40;99.90
3053;DHT22;1536;51.098;6.414;2022-09-13T00:22:34;19.40;99.90
3053;DHT22;1536;51.098;6.414;2022-09-13T00:25:01;19.30;99.90
3053;DHT22;1536;51.098;6.414;2022-09-13T00:27:28;19.30;99.90
3053;DHT22;1536;51.098;6.414;2022-09-13T00:29:54;19.30;99.90
3053;DHT22;1536;51.098;6.414;2022-09-13T00:32:21;19.30;99.90
3053;DHT22;1536;51.098;6.414;2022-09-13T00:34:49;19.30;99.90
3053;DHT22;1536;51.098;6.414;2022-09-13T00:37:16;19.30;99.90
3053;DHT22;1536;51.098;6.414;2022-09-13T00:39:43;19.30;99.90
3053;DHT22;1536;51.098;6.414;2022-09-13T00:42:11;19.30;99.90
3053;DHT22;1536;51.098;6.414;2022-09-13T00:44:54;19.20;99.90
3053;DHT22;1536;51.098;6.414;2022-09-13T00:47:25;19.20;99.90
3053;DHT22;1536;51.098;6.414;2022-09-13T00:49:58;19.20;99.90
3053;DHT22;1536;51.098;6.414;2022-09-13T00:52:28;19.20;99.90
3053;DHT22;1536;51.098;6.414;2022-09-13T00:54:59;19.20;99.90
3053;DHT22;1536;51.098;6.414;2022-09-13T00:57:28;19.10;99.90
3053;DHT22;1536;51.098;6.414;2022-09-13T00:59:59;19.10;99.90
3053;DHT22;1536;51.098;6.414;2022-09-13T01:02:31;19.10;99.90
3053;DHT22;1536;51.098;6.414;2022-09-13T01:04:59;19.10;99.90
3053;DHT22;1536;51.098;6.414;2022-09-13T01:07:27;19.10;99.90
3053;DHT22;1536;51.098;6.414;2022-09-13T01:09:53;19.10;99.90
3053;DHT22;1536;51.098;6.414;2022-09-13T01:12:30;19.10;99.90
3053;DHT22;1536;51.098;6.414;2022-09-13T01:15:00;19.10;99.90
3053;DHT22;1536;51.098;6.414;2022-09-13T01:17:28;19.10;99.90
3053;DHT22;1536;51.098;6.414;2022-09-13T01:19:56;19.10;99.90
3053;DHT22;1536;51.098;6.414;2022-09-13T01:22:36;19.10;99.90
3053;DHT22;1536;51.098;6.414;2022-09-13T01:31:28;19.00;99.90
3053;DHT22;1536;51.098;6.414;2022-09-13T01:34:08;19.00;99.90
3053;DHT22;1536;51.098;6.414;2022-09-13T01:36:54;19.00;99.90
3053;DHT22;1536;51.098;6.414;2022-09-13T01:39:40;19.00;99.90
3053;DHT22;1536;51.098;6.414;2022-09-13T01:42:19;19.00;99.90
3053;DHT22;1536;51.098;6.414;2022-09-13T01:45:05;19.00;99.90
3053;DHT22;1536;51.098;6.414;2022-09-13T01:47:44;18.90;99.90
3053;DHT22;1536;51.098;6.414;2022-09-13T01:50:21;18.90;99.90
3053;DHT22;1536;51.098;6.414;2022-09-13T01:52:54;18.90;99.90
3053;DHT22;1536;51.098;6.414;2022-09-13T01:55:31;18.90;99.90
3053;DHT22;1536;51.098;6.414;2022-09-13T01:58:06;19.00;99.90
3053;DHT22;1536;51.098;6.414;2022-09-13T02:00:41;19.10;99.90
3053;DHT22;1536;51.098;6.414;2022-09-13T02:03:14;19.10;99.90
3053;DHT22;1536;51.098;6.414;2022-09-13T02:05:46;19.20;99.90
3053;DHT22;1536;51.098;6.414;2022-09-13T02:08:17;19.20;99.90
3053;DHT22;1536;51.098;6.414;2022-09-13T02:10:46;19.30;99.90
3053;DHT22;1536;51.098;6.414;2022-09-13T02:13:16;19.40;99.90
3053;DHT22;1536;51.098;6.414;2022-09-13T02:15:46;19.40;99.90
3053;DHT22;1536;51.098;6.414;2022-09-13T02:18:18;19.50;99.90
3053;DHT22;1536;51.098;6.414;2022-09-13T02:20:49;19.50;99.90
3053;DHT22;1536;51.098;6.414;2022-09-13T02:23:21;19.60;99.90
3053;DHT22;1536;51.098;6.414;2022-09-13T02:25:50;19.60;99.90
3053;DHT22;1536;51.098;6.414;2022-09-13T02:28:21;19.70;99.90
3053;DHT22;1536;51.098;6.414;2022-09-13T02:30:53;19.70;99.90
3053;DHT22;1536;51.098;6.414;2022-09-13T02:33:27;19.70;99.90
3053;DHT22;1536;51.098;6.414;2022-09-13T02:35:59;19.80;99.90
3053;DHT22;1536;51.098;6.414;2022-09-13T02:38:30;19.80;99.90
3053;DHT22;1536;51.098;6.414;2022-09-13T02:41:02;19.80;99.90
3053;DHT22;1536;51.098;6.414;2022-09-13T02:43:34;19.90;99.90
3053;DHT22;1536;51.098;6.414;2022-09-13T02:46:12;19.90;99.90
3053;DHT22;1536;51.098;6.414;2022-09-13T02:48:50;19.90;99.90
3053;DHT22;1536;51.098;6.414;2022-09-13T02:51:24;19.90;99.90
3053;DHT22;1536;51.098;6.414;2022-09-13T02:54:03;19.90;99.90
3053;DHT22;1536;51.098;6.414;2022-09-13T02:56:40;19.90;99.90
3053;DHT22;1536;51.098;6.414;2022-09-13T02:59:13;19.90;99.90
3053;DHT22;1536;51.098;6.414;2022-09-13T03:01:42;19.90;99.90
3053;DHT22;1536;51.098;6.414;2022-09-13T03:04:12;19.90;99.90
3053;DHT22;1536;51.098;6.414;2022-09-13T03:06:39;19.90;99.90
3053;DHT22;1536;51.098;6.414;2022-09-13T03:09:07;19.90;99.90
3053;DHT22;1536;51.098;6.414;2022-09-13T03:11:41;19.90;99.90
3053;DHT22;1536;51.098;6.414;2022-09-13T03:14:29;19.80;99.90
3053;DHT22;1536;51.098;6.414;2022-09-13T03:17:12;19.80;99.90
3053;DHT22;1536;51.098;6.414;2022-09-13T03:20:05;19.80;99.90
3053;DHT22;1536;51.098;6.414;2022-09-13T03:23:09;19.80;99.90
3053;DHT22;1536;51.098;6.414;2022-09-13T03:28:37;19.80;99.90
3053;DHT22;1536;51.098;6.414;2022-09-13T03:31:11;19.80;99.90
3053;DHT22;1536;51.098;6.414;2022-09-13T03:33:46;19.70;99.90
3053;DHT22;1536;51.098;6.414;2022-09-13T03:36:20;19.70;99.90
3053;DHT22;1536;51.098;6.414;2022-09-13T03:38:55;19.70;99.90
3053;DHT22;1536;51.098;6.414;2022-09-13T03:41:29;19.70;99.90
3053;DHT22;1536;51.098;6.414;2022-09-13T03:43:59;19.70;99.90
3053;DHT22;1536;51.098;6.414;2022-09-13T03:46:30;19.70;99.90
3053;DHT22;1536;51.098;6.414;2022-09-13T03:49:00;19.70;99.90
3053;DHT22;1536;51.098;6.414;2022-09-13T03:51:29;19.60;99.90
3053;DHT22;1536;51.098;6.414;2022-09-13T03:54:00;19.60;99.90
3053;DHT22;1536;51.098;6.414;2022-09-13T03:56:27;19.70;99.90
3053;DHT22;1536;51.098;6.414;2022-09-13T03:58:54;19.60;99.90
3053;DHT22;1536;51.098;6.414;2022-09-13T04:01:23;19.60;99.90
3053;DHT22;1536;51.098;6.414;2022-09-13T04:03:50;19.60;99.90
3053;DHT22;1536;51.098;6.414;2022-09-13T04:06:17;19.60;99.90
3053;DHT22;1536;51.098;6.414;2022-09-13T04:08:45;19.60;99.90
3053;DHT22;1536;51.098;6.414;2022-09-13T04:11:11;19.60;99.90
3053;DHT22;1536;51.098;6.414;2022-09-13T04:13:38;19.60;99.90
3053;DHT22;1536;51.098;6.414;2022-09-13T04:16:06;19.50;99.90
3053;DHT22;1536;51.098;6.414;2022-09-13T04:18:33;19.60;99.90
3053;DHT22;1536;51.098;6.414;2022-09-13T04:21:01;19.60;99.90
3053;DHT22;1536;51.098;6.414;2022-09-13T04:23:29;19.60;99.90
3053;DHT22;1536;51.098;6.414;2022-09-13T04:26:02;19.60;99.90
3053;DHT22;1536;51.098;6.414;2022-09-13T04:28:29;19.60;99.90
3053;DHT22;1536;51.098;6.414;2022-09-13T04:30:56;19.60;99.90
3053;DHT22;1536;51.098;6.414;2022-09-13T04:33:23;19.60;99.90
3053;DHT22;1536;51.098;6.414;2022-09-13T04:35:53;19.60;99.90
3053;DHT22;1536;51.098;6.414;2022-09-13T04:38:20;19.60;99.90
3053;DHT22;1536;51.098;6.414;2022-09-13T04:40:52;19.60;99.90
3053;DHT22;1536;51.098;6.414;2022-09-13T04:43:20;19.60;99.90
3053;DHT22;1536;51.098;6.414;2022-09-13T04:45:47;19.50;99.90
3053;DHT22;1536;51.098;6.414;2022-09-13T04:48:13;19.50;99.90
3053;DHT22;1536;51.098;6.414;2022-09-13T04:50:40;19.50;99.90
3053;DHT22;1536;51.098;6.414;2022-09-13T04:53:07;19.50;99.90
3053;DHT22;1536;51.098;6.414;2022-09-13T04:55:34;19.50;99.90
3053;DHT22;1536;51.098;6.414;2022-09-13T04:58:01;19.50;99.90
3053;DHT22;1536;51.098;6.414;2022-09-13T05:00:31;19.40;99.90
3053;DHT22;1536;51.098;6.414;2022-09-13T05:02:59;19.40;99.90
3053;DHT22;1536;51.098;6.414;2022-09-13T05:05:25;19.40;99.90
3053;DHT22;1536;51.098;6.414;2022-09-13T05:07:53;19.40;99.90
3053;DHT22;1536;51.098;6.414;2022-09-13T05:10:20;19.40;99.90
3053;DHT22;1536;51.098;6.414;2022-09-13T05:12:47;19.50;99.90
3053;DHT22;1536;51.098;6.414;2022-09-13T05:15:13;19.40;99.90
3053;DHT22;1536;51.098;6.414;2022-09-13T05:17:41;19.50;99.90
3053;DHT22;1536;51.098;6.414;2022-09-13T05:20:09;19.60;99.90
3053;DHT22;1536;51.098;6.414;2022-09-13T05:22:36;19.50;99.90
3053;DHT22;1536;51.098;6.414;2022-09-13T05:25:03;19.50;99.90
3053;DHT22;1536;51.098;6.414;2022-09-13T05:27:30;19.50;99.90
3053;DHT22;1536;51.098;6.414;2022-09-13T05:29:56;19.50;99.90
3053;DHT22;1536;51.098;6.414;2022-09-13T05:32:23;19.50;99.90
3053;DHT22;1536;51.098;6.414;2022-09-13T05:34:51;19.50;99.90
3053;DHT22;1536;51.098;6.414;2022-09-13T05:37:18;19.40;99.90
3053;DHT22;1536;51.098;6.414;2022-09-13T05:39:44;19.50;99.90
3053;DHT22;1536;51.098;6.414;2022-09-13T05:42:11;19.50;99.90
3053;DHT22;1536;51.098;6.414;2022-09-13T05:44:38;19.50;99.90
3053;DHT22;1536;51.098;6.414;2022-09-13T05:47:05;19.50;99.90
3053;DHT22;1536;51.098;6.414;2022-09-13T05:49:32;19.50;99.90
3053;DHT22;1536;51.098;6.414;2022-09-13T05:52:00;19.50;99.90
3053;DHT22;1536;51.098;6.414;2022-09-13T05:54:27;19.40;99.90
3053;DHT22;1536;51.098;6.414;2022-09-13T05:56:53;19.40;99.90
3053;DHT22;1536;51.098;6.414;2022-09-13T05:59:22;19.50;99.90
3053;DHT22;1536;51.098;6.414;2022-09-13T06:01:48;19.50;99.90
3053;DHT22;1536;51.098;6.414;2022-09-13T06:04:15;19.50;99.90
3053;DHT22;1536;51.098;6.414;2022-09-13T06:06:42;19.40;99.90
3053;DHT22;1536;51.098;6.414;2022-09-13T06:09:11;19.40;99.90
3053;DHT22;1536;51.098;6.414;2022-09-13T06:11:38;19.50;99.90
3053;DHT22;1536;51.098;6.414;2022-09-13T06:14:05;19.50;99.90
3053;DHT22;1536;51.098;6.414;2022-09-13T06:16:32;19.50;99.90
3053;DHT22;1536;51.098;6.414;2022-09-13T06:18:59;19.50;99.90
3053;DHT22;1536;51.098;6.414;2022-09-13T06:21:25;19.50;99.90
3053;DHT22;1536;51.098;6.414;2022-09-13T06:23:53;19.60;99.90
3053;DHT22;1536;51.098;6.414;2022-09-13T06:26:23;19.50;99.90
3053;DHT22;1536;51.098;6.414;2022-09-13T06:28:51;19.60;99.90
3053;DHT22;1536;51.098;6.414;2022-09-13T06:31:21;19.60;99.90
3053;DHT22;1536;51.098;6.414;2022-09-13T06:33:53;19.60;99.90
3053;DHT22;1536;51.098;6.414;2022-09-13T06:36:21;19.60;99.90
3053;DHT22;1536;51.098;6.414;2022-09-13T06:38:48;19.60;99.90
3053;DHT22;1536;51.098;6.414;2022-09-13T06:41:16;19.60;99.90
3053;DHT22;1536;51.098;6.414;2022-09-13T06:43:45;19.70;99.90
3053;DHT22;1536;51.098;6.414;2022-09-13T06:46:14;19.70;99.90
3053;DHT22;1536;51.098;6.414;2022-09-13T06:48:43;19.70;99.90
3053;DHT22;1536;51.098;6.414;2022-09-13T06:51:11;19.70;99.90
3053;DHT22;1536;51.098;6.414;2022-09-13T06:53:39;19.80;99.90
3053;DHT22;1536;51.098;6.414;2022-09-13T06:56:09;19.80;99.90
3053;DHT22;1536;51.098;6.414;2022-09-13T06:58:37;19.80;99.90
3053;DHT22;1536;51.098;6.414;2022-09-13T07:01:13;19.80;99.90
3053;DHT22;1536;51.098;6.414;2022-09-13T07:03:41;19.90;99.90
3053;DHT22;1536;51.098;6.414;2022-09-13T07:06:10;19.90;99.90
3053;DHT22;1536;51.098;6.414;2022-09-13T07:08:37;19.90;99.90
3053;DHT22;1536;51.098;6.414;2022-09-13T07:11:04;20.00;99.90
3053;DHT22;1536;51.098;6.414;2022-09-13T07:13:31;20.00;99.90
3053;DHT22;1536;51.098;6.414;2022-09-13T07:16:00;20.00;99.90
3053;DHT22;1536;51.098;6.414;2022-09-13T07:18:29;20.10;99.90
3053;DHT22;1536;51.098;6.414;2022-09-13T07:20:58;20.10;99.90
3053;DHT22;1536;51.098;6.414;2022-09-13T07:23:26;20.20;99.90
3053;DHT22;1536;51.098;6.414;2022-09-13T07:25:54;20.20;99.90
3053;DHT22;1536;51.098;6.414;2022-09-13T07:28:20;20.30;99.90
3053;DHT22;1536;51.098;6.414;2022-09-13T07:30:47;20.30;99.90
3053;DHT22;1536;51.098;6.414;2022-09-13T07:33:14;20.40;99.90
3053;DHT22;1536;51.098;6.414;2022-09-13T07:35:42;20.40;99.90
3053;DHT22;1536;51.098;6.414;2022-09-13T07:38:09;20.50;99.90
3053;DHT22;1536;51.098;6.414;2022-09-13T07:40:36;20.50;99.90
3053;DHT22;1536;51.098;6.414;2022-09-13T07:43:02;20.50;99.90
3053;DHT22;1536;51.098;6.414;2022-09-13T07:45:29;20.60;99.90
3053;DHT22;1536;51.098;6.414;2022-09-13T07:47:56;20.60;99.90
3053;DHT22;1536;51.098;6.414;2022-09-13T07:50:23;20.60;99.90
3053;DHT22;1536;51.098;6.414;2022-09-13T07:52:51;20.70;99.90
3053;DHT22;1536;51.098;6.414;2022-09-13T07:55:17;20.70;99.90
3053;DHT22;1536;51.098;6.414;2022-09-13T07:57:44;20.70;99.90
3053;DHT22;1536;51.098;6.414;2022-09-13T08:00:12;20.80;99.90
3053;DHT22;1536;51.098;6.414;2022-09-13T08:02:39;20.80;99.90
3053;DHT22;1536;51.098;6.414;2022-09-13T08:05:06;20.80;99.90
3053;DHT22;1536;51.098;6.414;2022-09-13T08:07:33;20.90;99.90
3053;DHT22;1536;51.098;6.414;2022-09-13T08:10:01;20.90;99.90
3053;DHT22;1536;51.098;6.414;2022-09-13T08:12:27;21.00;99.90
3053;DHT22;1536;51.098;6.414;2022-09-13T08:14:54;21.10;99.90
3053;DHT22;1536;51.098;6.414;2022-09-13T08:17:21;21.10;99.90
3053;DHT22;1536;51.098;6.414;2022-09-13T08:19:47;21.20;99.90
3053;DHT22;1536;51.098;6.414;2022-09-13T08:22:14;21.20;99.90
3053;DHT22;1536;51.098;6.414;2022-09-13T08:24:41;21.30;99.90
3053;DHT22;1536;51.098;6.414;2022-09-13T08:27:09;21.30;99.90
3053;DHT22;1536;51.098;6.414;2022-09-13T08:29:37;21.40;99.90
3053;DHT22;1536;51.098;6.414;2022-09-13T08:32:04;21.40;99.90
3053;DHT22;1536;51.098;6.414;2022-09-13T08:34:31;21.50;99.90
3053;DHT22;1536;51.098;6.414;2022-09-13T08:36:57;21.60;99.90
3053;DHT22;1536;51.098;6.414;2022-09-13T08:39:24;21.60;99.90
3053;DHT22;1536;51.098;6.414;2022-09-13T08:42:03;21.60;99.90
3053;DHT22;1536;51.098;6.414;2022-09-13T08:44:35;21.70;99.90
3053;DHT22;1536;51.098;6.414;2022-09-13T08:47:14;21.70;99.90
3053;DHT22;1536;51.098;6.414;2022-09-13T08:49:46;21.70;99.90
3053;DHT22;1536;51.098;6.414;2022-09-13T08:52:23;21.70;99.90
3053;DHT22;1536;51.098;6.414;2022-09-13T08:54:53;21.80;99.90
3053;DHT22;1536;51.098;6.414;2022-09-13T08:57:25;21.80;99.90
3053;DHT22;1536;51.098;6.414;2022-09-13T09:00:03;21.80;99.90
3053;DHT22;1536;51.098;6.414;2022-09-13T09:02:50;21.90;99.90
3053;DHT22;1536;51.098;6.414;2022-09-13T09:05:22;21.90;99.90
3053;DHT22;1536;51.098;6.414;2022-09-13T09:07:52;22.00;99.90
3053;DHT22;1536;51.098;6.414;2022-09-13T09:10:21;22.00;99.90
3053;DHT22;1536;51.098;6.414;2022-09-13T09:12:53;22.10;99.90
3053;DHT22;1536;51.098;6.414;2022-09-13T09:15:23;22.10;99.90
3053;DHT22;1536;51.098;6.414;2022-09-13T09:17:57;22.20;99.90
3053;DHT22;1536;51.098;6.414;2022-09-13T09:20:28;22.20;99.90
3053;DHT22;1536;51.098;6.414;2022-09-13T09:23:00;22.30;99.90
3053;DHT22;1536;51.098;6.414;2022-09-13T09:25:27;22.40;99.90
3053;DHT22;1536;51.098;6.414;2022-09-13T09:27:55;22.40;99.90
3053;DHT22;1536;51.098;6.414;2022-09-13T09:30:36;22.40;99.90
3053;DHT22;1536;51.098;6.414;2022-09-13T09:33:17;22.50;99.90
3053;DHT22;1536;51.098;6.414;2022-09-13T09:35:54;22.50;99.90
3053;DHT22;1536;51.098;6.414;2022-09-13T09:38:35;22.60;99.90
3053;DHT22;1536;51.098;6.414;2022-09-13T09:41:05;22.70;99.90
3053;DHT22;1536;51.098;6.414;2022-09-13T09:43:40;22.70;99.90
3053;DHT22;1536;51.098;6.414;2022-09-13T09:46:13;22.80;99.90
3053;DHT22;1536;51.098;6.414;2022-09-13T09:48:46;22.80;99.90
3053;DHT22;1536;51.098;6.414;2022-09-13T09:51:14;22.90;99.90
3053;DHT22;1536;51.098;6.414;2022-09-13T09:53:46;23.00;99.90
3053;DHT22;1536;51.098;6.414;2022-09-13T09:56:20;23.00;99.90
3053;DHT22;1536;51.098;6.414;2022-09-13T09:58:48;23.00;99.90
3053;DHT22;1536;51.098;6.414;2022-09-13T10:01:20;23.10;99.90
3053;DHT22;1536;51.098;6.414;2022-09-13T10:03:53;23.10;99.90
3053;DHT22;1536;51.098;6.414;2022-09-13T10:06:24;23.20;99.90
3053;DHT22;1536;51.098;6.414;2022-09-13T10:08:56;23.20;99.90
3053;DHT22;1536;51.098;6.414;2022-09-13T10:11:40;23.20;99.90
3053;DHT22;1536;51.098;6.414;2022-09-13T10:14:37;23.30;99.90
3053;DHT22;1536;51.098;6.414;2022-09-13T10:17:14;23.40;99.90
3053;DHT22;1536;51.098;6.414;2022-09-13T10:19:53;23.40;99.90
3053;DHT22;1536;51.098;6.414;2022-09-13T10:22:22;23.50;99.90
3053;DHT22;1536;51.098;6.414;2022-09-13T10:24:49;23.50;99.90
3053;DHT22;1536;51.098;6.414;2022-09-13T10:27:21;23.60;99.90
3053;DHT22;1536;51.098;6.414;2022-09-13T10:29:50;23.60;99.90
3053;DHT22;1536;51.098;6.414;2022-09-13T10:32:20;23.60;99.90
3053;DHT22;1536;51.098;6.414;2022-09-13T10:34:48;23.60;99.90
3053;DHT22;1536;51.098;6.414;2022-09-13T10:37:18;23.60;99.90
3053;DHT22;1536;51.098;6.414;2022-09-13T10:40:00;23.60;99.90
3053;DHT22;1536;51.098;6.414;2022-09-13T10:42:30;23.70;99.90
3053;DHT22;1536;51.098;6.414;2022-09-13T10:44:58;23.70;99.90
3053;DHT22;1536;51.098;6.414;2022-09-13T10:47:31;23.80;99.90
3053;DHT22;1536;51.098;6.414;2022-09-13T10:50:11;23.80;99.90
3053;DHT22;1536;51.098;6.414;2022-09-13T10:52:42;23.90;99.90
3053;DHT22;1536;51.098;6.414;2022-09-13T10:55:27;23.90;99.90
3053;DHT22;1536;51.098;6.414;2022-09-13T10:58:12;24.00;99.90
3053;DHT22;1536;51.098;6.414;2022-09-13T11:06:47;24.10;99.90
3053;DHT22;1536;51.098;6.414;2022-09-13T11:09:22;24.10;99.90
3053;DHT22;1536;51.098;6.414;2022-09-13T11:11:55;24.10;99.90
3053;DHT22;1536;51.098;6.414;2022-09-13T11:14:38;24.20;99.90
3053;DHT22;1536;51.098;6.414;2022-09-13T11:17:15;24.20;99.90
3053;DHT22;1536;51.098;6.414;2022-09-13T11:20:10;24.20;99.90
3053;DHT22;1536;51.098;6.414;2022-09-13T11:22:57;24.30;99.90
3053;DHT22;1536;51.098;6.414;2022-09-13T11:25:38;24.30;99.90
3053;DHT22;1536;51.098;6.414;2022-09-13T11:28:15;24.30;99.90
3053;DHT22;1536;51.098;6.414;2022-09-13T11:31:02;24.30;99.90
3053;DHT22;1536;51.098;6.414;2022-09-13T11:33:38;24.40;99.90
3053;DHT22;1536;51.098;6.414;2022-09-13T11:36:21;24.40;99.90
3053;DHT22;1536;51.098;6.414;2022-09-13T11:39:01;24.40;99.90
3053;DHT22;1536;51.098;6.414;2022-09-13T11:41:39;24.40;99.90
3053;DHT22;1536;51.098;6.414;2022-09-13T11:44:35;24.40;99.90
3053;DHT22;1536;51.098;6.414;2022-09-13T11:47:15;24.40;99.90
3053;DHT22;1536;51.098;6.414;2022-09-13T11:49:54;24.50;99.90
3053;DHT22;1536;51.098;6.414;2022-09-13T11:52:34;24.50;99.90
3053;DHT22;1536;51.098;6.414;2022-09-13T11:55:14;24.50;99.90
3053;DHT22;1536;51.098;6.414;2022-09-13T11:57:46;24.50;99.90
3053;DHT22;1536;51.098;6.414;2022-09-13T12:00:19;24.60;99.90
3053;DHT22;1536;51.098;6.414;2022-09-13T12:02:52;24.60;99.90
3053;DHT22;1536;51.098;6.414;2022-09-13T12:05:25;24.70;99.90
3053;DHT22;1536;51.098;6.414;2022-09-13T12:07:56;24.70;99.90
3053;DHT22;1536;51.098;6.414;2022-09-13T12:10:28;24.70;99.90
3053;DHT22;1536;51.098;6.414;2022-09-13T12:12:56;24.70;99.90
3053;DHT22;1536;51.098;6.414;2022-09-13T12:15:31;24.70;99.90
3053;DHT22;1536;51.098;6.414;2022-09-13T12:18:04;24.70;99.90
3053;DHT22;1536;51.098;6.414;2022-09-13T12:20:34;24.70;99.90
3053;DHT22;1536;51.098;6.414;2022-09-13T12:23:04;24.70;99.90
3053;DHT22;1536;51.098;6.414;2022-09-13T12:25:42;24.80;99.90
3053;DHT22;1536;51.098;6.414;2022-09-13T12:28:15;24.80;99.90
3053;DHT22;1536;51.098;6.414;2022-09-13T12:30:47;24.80;99.90
3053;DHT22;1536;51.098;6.414;2022-09-13T12:33:16;24.90;99.90
3053;DHT22;1536;51.098;6.414;2022-09-13T12:35:50;24.90;99.90
3053;DHT22;1536;51.098;6.414;2022-09-13T12:38:33;24.90;99.90
3053;DHT22;1536;51.098;6.414;2022-09-13T12:41:21;24.90;99.90
3053;DHT22;1536;51.098;6.414;2022-09-13T12:44:10;25.00;99.90
3053;DHT22;1536;51.098;6.414;2022-09-13T12:50:03;25.00;99.90
3053;DHT22;1536;51.098;6.414;2022-09-13T12:52:39;25.10;99.90
3053;DHT22;1536;51.098;6.414;2022-09-13T12:55:34;25.10;99.90
3053;DHT22;1536;51.098;6.414;2022-09-13T12:58:29;25.20;99.90
3053;DHT22;1536;51.098;6.414;2022-09-13T13:01:07;25.20;99.90
3053;DHT22;1536;51.098;6.414;2022-09-13T13:03:41;25.20;99.90
3053;DHT22;1536;51.098;6.414;2022-09-13T13:06:20;25.30;99.90
3053;DHT22;1536;51.098;6.414;2022-09-13T13:08:51;25.30;99.90
3053;DHT22;1536;51.098;6.414;2022-09-13T13:11:22;25.30;99.90
3053;DHT22;1536;51.098;6.414;2022-09-13T13:13:55;25.30;99.90
3053;DHT22;1536;51.098;6.414;2022-09-13T13:16:28;25.30;99.90
3053;DHT22;1536;51.098;6.414;2022-09-13T13:18:56;25.20;99.90
3053;DHT22;1536;51.098;6.414;2022-09-13T13:21:27;25.30;99.90
3053;DHT22;1536;51.098;6.414;2022-09-13T13:26:59;25.30;99.90
3053;DHT22;1536;51.098;6.414;2022-09-13T13:29:28;25.30;99.90
3053;DHT22;1536;51.098;6.414;2022-09-13T13:32:10;25.30;99.90
3053;DHT22;1536;51.098;6.414;2022-09-13T13:34:40;25.30;99.90
3053;DHT22;1536;51.098;6.414;2022-09-13T13:37:31;25.30;99.90
3053;DHT22;1536;51.098;6.414;2022-09-13T13:40:21;25.30;99.90
3053;DHT22;1536;51.098;6.414;2022-09-13T13:42:49;25.30;99.90
3053;DHT22;1536;51.098;6.414;2022-09-13T13:45:23;25.30;99.90
3053;DHT22;1536;51.098;6.414;2022-09-13T13:51:11;25.30;99.90
3053;DHT22;1536;51.098;6.414;2022-09-13T13:53:47;25.40;99.90
3053;DHT22;1536;51.098;6.414;2022-09-13T13:56:21;25.50;99.90
3053;DHT22;1536;51.098;6.414;2022-09-13T13:58:52;25.50;99.90
3053;DHT22;1536;51.098;6.414;2022-09-13T14:01:24;25.60;99.90
3053;DHT22;1536;51.098;6.414;2022-09-13T14:06:45;25.60;99.90
3053;DHT22;1536;51.098;6.414;2022-09-13T14:09:28;25.70;99.90
3053;DHT22;1536;51.098;6.414;2022-09-13T14:12:12;25.80;99.90
3053;DHT22;1536;51.098;6.414;2022-09-13T14:15:00;25.70;99.90
3053;DHT22;1536;51.098;6.414;2022-09-13T14:20:30;25.80;99.90
3053;DHT22;1536;51.098;6.414;2022-09-13T14:23:16;25.90;99.90
3053;DHT22;1536;51.098;6.414;2022-09-13T14:25:43;25.90;99.90
3053;DHT22;1536;51.098;6.414;2022-09-13T14:28:14;25.90;99.90
3053;DHT22;1536;51.098;6.414;2022-09-13T14:30:44;26.00;99.90
3053;DHT22;1536;51.098;6.414;2022-09-13T14:33:22;26.00;99.90
3053;DHT22;1536;51.098;6.414;2022-09-13T14:35:56;26.00;99.90
3053;DHT22;1536;51.098;6.414;2022-09-13T14:38:25;26.00;99.90
3053;DHT22;1536;51.098;6.414;2022-09-13T14:40:58;26.00;99.90
3053;DHT22;1536;51.098;6.414;2022-09-13T14:43:27;25.90;99.90
3053;DHT22;1536;51.098;6.414;2022-09-13T14:45:59;25.90;99.90
3053;DHT22;1536;51.098;6.414;2022-09-13T14:48:33;26.00;99.90
3053;DHT22;1536;51.098;6.414;2022-09-13T14:51:05;26.00;99.90
3053;DHT22;1536;51.098;6.414;2022-09-13T14:53:34;26.00;99.90
3053;DHT22;1536;51.098;6.414;2022-09-13T14:56:05;26.00;99.90
3053;DHT22;1536;51.098;6.414;2022-09-13T14:58:40;25.90;99.90
3053;DHT22;1536;51.098;6.414;2022-09-13T15:01:10;25.90;99.90
3053;DHT22;1536;51.098;6.414;2022-09-13T15:03:41;25.80;99.90
3053;DHT22;1536;51.098;6.414;2022-09-13T15:06:20;25.80;99.90
3053;DHT22;1536;51.098;6.414;2022-09-13T15:08:48;25.70;99.90
3053;DHT22;1536;51.098;6.414;2022-09-13T15:11:25;25.70;99.90
3053;DHT22;1536;51.098;6.414;2022-09-13T15:14:01;25.60;99.90
3053;DHT22;1536;51.098;6.414;2022-09-13T15:16:29;25.60;99.90
3053;DHT22;1536;51.098;6.414;2022-09-13T15:19:29;25.50;99.90
3053;DHT22;1536;51.098;6.414;2022-09-13T15:22:18;25.40;99.90
3053;DHT22;1536;51.098;6.414;2022-09-13T15:24:47;25.40;99.90
3053;DHT22;1536;51.098;6.414;2022-09-13T15:27:21;25.30;99.90
3053;DHT22;1536;51.098;6.414;2022-09-13T15:29:49;25.30;99.90
3053;DHT22;1536;51.098;6.414;2022-09-13T15:32:27;25.20;99.90
3053;DHT22;1536;51.098;6.414;2022-09-13T15:34:57;25.20;99.90
3053;DHT22;1536;51.098;6.414;2022-09-13T15:37:33;25.10;99.90
3053;DHT22;1536;51.098;6.414;2022-09-13T15:40:19;25.10;99.90
3053;DHT22;1536;51.098;6.414;2022-09-13T15:42:51;25.00;99.90
3053;DHT22;1536;51.098;6.414;2022-09-13T15:45:19;25.00;99.90
3053;DHT22;1536;51.098;6.414;2022-09-13T15:47:47;24.90;99.90
3053;DHT22;1536;51.098;6.414;2022-09-13T15:50:21;24.90;99.90
3053;DHT22;1536;51.098;6.414;2022-09-13T15:52:49;24.80;99.90
3053;DHT22;1536;51.098;6.414;2022-09-13T15:55:15;24.80;99.90
3053;DHT22;1536;51.098;6.414;2022-09-13T15:57:43;24.70;99.90
3053;DHT22;1536;51.098;6.414;2022-09-13T16:00:15;24.60;99.90
3053;DHT22;1536;51.098;6.414;2022-09-13T16:02:42;24.60;99.90
3053;DHT22;1536;51.098;6.414;2022-09-13T16:05:09;24.50;99.90
3053;DHT22;1536;51.098;6.414;2022-09-13T16:07:38;24.50;99.90
3053;DHT22;1536;51.098;6.414;2022-09-13T16:10:09;24.40;99.90
3053;DHT22;1536;51.098;6.414;2022-09-13T16:12:36;24.40;99.90
3053;DHT22;1536;51.098;6.414;2022-09-13T16:15:03;24.30;99.90
3053;DHT22;1536;51.098;6.414;2022-09-13T16:17:30;24.30;99.90
3053;DHT22;1536;51.098;6.414;2022-09-13T16:19:57;24.20;99.90
3053;DHT22;1536;51.098;6.414;2022-09-13T16:22:24;24.20;99.90
3053;DHT22;1536;51.098;6.414;2022-09-13T16:24:52;24.20;99.90
3053;DHT22;1536;51.098;6.414;2022-09-13T16:27:19;24.10;99.90
3053;DHT22;1536;51.098;6.414;2022-09-13T16:29:46;24.10;99.90
3053;DHT22;1536;51.098;6.414;2022-09-13T16:32:12;24.10;99.90
3053;DHT22;1536;51.098;6.414;2022-09-13T16:34:40;24.00;99.90
3053;DHT22;1536;51.098;6.414;2022-09-13T16:37:06;24.00;99.90
3053;DHT22;1536;51.098;6.414;2022-09-13T16:39:33;24.00;99.90
3053;DHT22;1536;51.098;6.414;2022-09-13T16:42:01;23.90;99.90
3053;DHT22;1536;51.098;6.414;2022-09-13T16:44:29;23.90;99.90
3053;DHT22;1536;51.098;6.414;2022-09-13T16:46:56;23.90;99.90
3053;DHT22;1536;51.098;6.414;2022-09-13T16:49:23;23.80;99.90
3053;DHT22;1536;51.098;6.414;2022-09-13T16:51:50;23.80;99.90
3053;DHT22;1536;51.098;6.414;2022-09-13T16:54:17;23.80;99.90
3053;DHT22;1536;51.098;6.414;2022-09-13T16:56:44;23.70;99.90
3053;DHT22;1536;51.098;6.414;2022-09-13T16:59:12;23.70;99.90
3053;DHT22;1536;51.098;6.414;2022-09-13T17:01:38;23.70;99.90